Richmond, MN (56368)

7:52 PM CST on February 13, 2016 (GMT -0600)
North of Kimball | | Change Station
CLOSE
Current Station
Personal Weather Station
Location: Kimball, MN
Elevation: 1260 ft
Nearby Weather Stations

Elev 1260 ft 45.35 °N, 94.34 °W | Updated 15 seconds ago

Overcast
Overcast
8.7 °F
Feels Like -9 °F
N
17.0
Wind Variable Wind from ESE
Gusts 17.0 mph

Today
High -- | Low -- °F
--% Chance of Precip.
Yesterday
High -- | Low -- °F
Precip. -- in
Pressure 30.29 in
Visibility 10.0 miles
Clouds Overcast 5000 ft
Windchill -9 °F
Dew Point -1 °F
Humidity 64%
Rainfall 0.00 in
Snow Depth Not available.
7:23 AM 5:41 PM
Waxing Crescent, 36% visible
METAR KPEX 140133Z AUTO 13007KT 10SM OVC050 M13/M19 A3029 RMK AO2 T11291191
Pressure 30.29 in
Visibility 10.0 miles
Clouds Overcast 5000 ft
Windchill -9 °F
Dew Point -1 °F
Humidity 64%
Rainfall 0.00 in
Snow Depth Not available.
7:23 AM 5:41 PM
Waxing Crescent, 36% visible
METAR KPEX 140133Z AUTO 13007KT 10SM OVC050 M13/M19 A3029 RMK AO2 T11291191

10-Day Weather Forecast

Almanac

Astronomy

Feb. 13, 2016 Rise Set
Actual Time
Civil Twilight
Nautical Twilight
Astronomical Twilight
Moon
Length of Visible Light
Length of Day
Tomorrow will be .
, % of the Moon is Illuminated

Today's Extremes

State Highs State Lows

Community

WunderPhotos

Upload Photos

1,892,722 photos uploaded!

WunderBlog® & News

Nearby

Air Quality

  Air Quality AQ Index Pollutant
Not available.

Snow Depth

Station Depth Elevation

Earthquake Activity

City Distance Mag. Time & Date
Minimum magnitude displayed is 2.5.

Coastal Water Temperatures

Place Temperature

Stations

Nearby Weather Stations

Station Location Temp. Windchill Dew Point Humidity Wind Precip. Elev Updated Type
                   

Watches & Warnings

There are currently no watches in effect.